sensor_id;sensor_type;location;lat;lon;timestamp;P1;durP1;ratioP1;P2;durP2;ratioP2
22490;SDS011;11412;50.802;4.350;2023-03-17T00:00:36;2.38;;;1.80;;
22490;SDS011;11412;50.802;4.350;2023-03-17T00:03:03;3.67;;;1.52;;
22490;SDS011;11412;50.802;4.350;2023-03-17T00:05:32;4.68;;;1.52;;
22490;SDS011;11412;50.802;4.350;2023-03-17T00:08:09;1.20;;;1.10;;
22490;SDS011;11412;50.802;4.350;2023-03-17T00:10:44;1.58;;;1.30;;
22490;SDS011;11412;50.802;4.350;2023-03-17T00:13:10;1.55;;;1.40;;
22490;SDS011;11412;50.802;4.350;2023-03-17T00:15:36;3.03;;;1.45;;
22490;SDS011;11412;50.802;4.350;2023-03-17T00:18:02;1.23;;;1.20;;
22490;SDS011;11412;50.802;4.350;2023-03-17T00:20:29;2.63;;;1.15;;
22490;SDS011;11412;50.802;4.350;2023-03-17T00:22:59;2.45;;;1.65;;
22490;SDS011;11412;50.802;4.350;2023-03-17T00:25:32;2.13;;;1.20;;
22490;SDS011;11412;50.802;4.350;2023-03-17T00:27:59;1.73;;;1.63;;
22490;SDS011;11412;50.802;4.350;2023-03-17T00:30:26;3.65;;;1.45;;
22490;SDS011;11412;50.802;4.350;2023-03-17T00:32:53;1.50;;;1.40;;
22490;SDS011;11412;50.802;4.350;2023-03-17T00:35:22;2.60;;;1.63;;
22490;SDS011;11412;50.802;4.350;2023-03-17T00:37:50;2.85;;;1.70;;
22490;SDS011;11412;50.802;4.350;2023-03-17T00:40:21;1.98;;;1.58;;
22490;SDS011;11412;50.802;4.350;2023-03-17T00:42:49;3.85;;;1.88;;
22490;SDS011;11412;50.802;4.350;2023-03-17T00:45:16;3.53;;;2.05;;
22490;SDS011;11412;50.802;4.350;2023-03-17T00:47:43;3.83;;;2.30;;
22490;SDS011;11412;50.802;4.350;2023-03-17T00:50:11;2.55;;;1.90;;
22490;SDS011;11412;50.802;4.350;2023-03-17T00:52:42;2.17;;;1.77;;
22490;SDS011;11412;50.802;4.350;2023-03-17T00:55:09;4.13;;;2.08;;
22490;SDS011;11412;50.802;4.350;2023-03-17T00:57:36;2.95;;;2.00;;
22490;SDS011;11412;50.802;4.350;2023-03-17T01:00:03;2.90;;;2.17;;
22490;SDS011;11412;50.802;4.350;2023-03-17T01:02:30;1.95;;;1.80;;
22490;SDS011;11412;50.802;4.350;2023-03-17T01:04:56;2.42;;;2.00;;
22490;SDS011;11412;50.802;4.350;2023-03-17T01:07:22;2.72;;;1.65;;
22490;SDS011;11412;50.802;4.350;2023-03-17T01:09:48;1.73;;;1.63;;
22490;SDS011;11412;50.802;4.350;2023-03-17T01:12:14;3.03;;;1.40;;
22490;SDS011;11412;50.802;4.350;2023-03-17T01:14:40;2.38;;;1.58;;
22490;SDS011;11412;50.802;4.350;2023-03-17T01:17:11;1.75;;;1.65;;
22490;SDS011;11412;50.802;4.350;2023-03-17T01:22:06;2.03;;;1.30;;
22490;SDS011;11412;50.802;4.350;2023-03-17T01:24:33;1.25;;;1.15;;
22490;SDS011;11412;50.802;4.350;2023-03-17T01:27:00;1.98;;;1.23;;
22490;SDS011;11412;50.802;4.350;2023-03-17T01:29:26;2.22;;;1.60;;
22490;SDS011;11412;50.802;4.350;2023-03-17T01:31:52;3.50;;;1.45;;
22490;SDS011;11412;50.802;4.350;2023-03-17T01:34:18;1.95;;;1.42;;
22490;SDS011;11412;50.802;4.350;2023-03-17T01:36:44;3.25;;;1.30;;
22490;SDS011;11412;50.802;4.350;2023-03-17T01:39:10;6.43;;;1.45;;
22490;SDS011;11412;50.802;4.350;2023-03-17T01:41:37;1.98;;;1.80;;
22490;SDS011;11412;50.802;4.350;2023-03-17T01:44:04;2.67;;;1.80;;
22490;SDS011;11412;50.802;4.350;2023-03-17T01:46:31;4.57;;;1.42;;
22490;SDS011;11412;50.802;4.350;2023-03-17T01:49:04;4.70;;;1.50;;
22490;SDS011;11412;50.802;4.350;2023-03-17T01:54:41;3.08;;;1.60;;
22490;SDS011;11412;50.802;4.350;2023-03-17T01:57:24;2.92;;;1.20;;
22490;SDS011;11412;50.802;4.350;2023-03-17T01:59:58;3.13;;;1.90;;
22490;SDS011;11412;50.802;4.350;2023-03-17T02:02:30;1.35;;;1.23;;
22490;SDS011;11412;50.802;4.350;2023-03-17T02:04:58;2.38;;;1.60;;
22490;SDS011;11412;50.802;4.350;2023-03-17T02:07:24;2.22;;;1.30;;
22490;SDS011;11412;50.802;4.350;2023-03-17T02:09:52;1.67;;;1.30;;
22490;SDS011;11412;50.802;4.350;2023-03-17T02:12:20;2.60;;;1.25;;
22490;SDS011;11412;50.802;4.350;2023-03-17T02:14:48;1.27;;;1.17;;
22490;SDS011;11412;50.802;4.350;2023-03-17T02:17:14;1.77;;;1.30;;
22490;SDS011;11412;50.802;4.350;2023-03-17T02:19:39;1.85;;;1.15;;
22490;SDS011;11412;50.802;4.350;2023-03-17T02:22:06;4.22;;;1.30;;
22490;SDS011;11412;50.802;4.350;2023-03-17T02:24:34;4.30;;;1.67;;
22490;SDS011;11412;50.802;4.350;2023-03-17T02:27:07;2.88;;;1.48;;
22490;SDS011;11412;50.802;4.350;2023-03-17T02:32:03;2.92;;;1.42;;
22490;SDS011;11412;50.802;4.350;2023-03-17T02:34:30;2.58;;;1.48;;
22490;SDS011;11412;50.802;4.350;2023-03-17T02:36:56;3.38;;;1.50;;
22490;SDS011;11412;50.802;4.350;2023-03-17T02:39:22;1.63;;;1.30;;
22490;SDS011;11412;50.802;4.350;2023-03-17T02:41:48;2.83;;;1.50;;
22490;SDS011;11412;50.802;4.350;2023-03-17T02:44:14;3.75;;;1.33;;
22490;SDS011;11412;50.802;4.350;2023-03-17T02:46:40;2.90;;;1.52;;
22490;SDS011;11412;50.802;4.350;2023-03-17T02:49:06;1.45;;;1.30;;
22490;SDS011;11412;50.802;4.350;2023-03-17T02:51:32;4.60;;;1.48;;
22490;SDS011;11412;50.802;4.350;2023-03-17T02:53:58;4.07;;;1.70;;
22490;SDS011;11412;50.802;4.350;2023-03-17T02:56:24;3.28;;;1.50;;
22490;SDS011;11412;50.802;4.350;2023-03-17T02:58:50;4.18;;;1.50;;
22490;SDS011;11412;50.802;4.350;2023-03-17T03:01:17;3.92;;;1.70;;
22490;SDS011;11412;50.802;4.350;2023-03-17T03:03:42;4.15;;;1.75;;
22490;SDS011;11412;50.802;4.350;2023-03-17T03:06:08;3.10;;;1.85;;
22490;SDS011;11412;50.802;4.350;2023-03-17T03:08:34;2.90;;;1.63;;
22490;SDS011;11412;50.802;4.350;2023-03-17T03:11:00;2.00;;;1.73;;
22490;SDS011;11412;50.802;4.350;2023-03-17T03:13:26;1.92;;;1.60;;
22490;SDS011;11412;50.802;4.350;2023-03-17T03:15:52;3.67;;;1.60;;
22490;SDS011;11412;50.802;4.350;2023-03-17T03:18:18;2.30;;;1.55;;
22490;SDS011;11412;50.802;4.350;2023-03-17T03:20:44;5.50;;;2.13;;
22490;SDS011;11412;50.802;4.350;2023-03-17T03:23:10;4.78;;;1.80;;
22490;SDS011;11412;50.802;4.350;2023-03-17T03:25:37;2.75;;;1.55;;
22490;SDS011;11412;50.802;4.350;2023-03-17T03:28:04;2.60;;;1.40;;
22490;SDS011;11412;50.802;4.350;2023-03-17T03:30:32;1.75;;;1.20;;
22490;SDS011;11412;50.802;4.350;2023-03-17T03:32:59;2.53;;;1.40;;
22490;SDS011;11412;50.802;4.350;2023-03-17T03:35:25;2.97;;;1.73;;
22490;SDS011;11412;50.802;4.350;2023-03-17T03:37:51;3.22;;;1.60;;
22490;SDS011;11412;50.802;4.350;2023-03-17T03:40:17;2.17;;;1.33;;
22490;SDS011;11412;50.802;4.350;2023-03-17T03:42:42;4.13;;;2.30;;
22490;SDS011;11412;50.802;4.350;2023-03-17T03:45:08;2.33;;;1.08;;
22490;SDS011;11412;50.802;4.350;2023-03-17T03:47:34;1.48;;;1.33;;
22490;SDS011;11412;50.802;4.350;2023-03-17T03:50:00;2.22;;;1.73;;
22490;SDS011;11412;50.802;4.350;2023-03-17T03:52:26;2.97;;;2.05;;
22490;SDS011;11412;50.802;4.350;2023-03-17T03:54:51;8.45;;;3.88;;
22490;SDS011;11412;50.802;4.350;2023-03-17T03:57:17;5.18;;;3.15;;
22490;SDS011;11412;50.802;4.350;2023-03-17T03:59:43;5.97;;;3.80;;
22490;SDS011;11412;50.802;4.350;2023-03-17T04:02:08;6.32;;;3.00;;
22490;SDS011;11412;50.802;4.350;2023-03-17T04:04:34;5.47;;;3.30;;
22490;SDS011;11412;50.802;4.350;2023-03-17T04:07:00;3.03;;;2.53;;
22490;SDS011;11412;50.802;4.350;2023-03-17T04:09:26;9.02;;;2.80;;
22490;SDS011;11412;50.802;4.350;2023-03-17T04:11:52;3.30;;;2.13;;
22490;SDS011;11412;50.802;4.350;2023-03-17T04:14:17;4.50;;;2.17;;
22490;SDS011;11412;50.802;4.350;2023-03-17T04:16:43;2.42;;;2.08;;
22490;SDS011;11412;50.802;4.350;2023-03-17T04:19:09;3.95;;;2.28;;
22490;SDS011;11412;50.802;4.350;2023-03-17T04:21:35;6.93;;;2.28;;
22490;SDS011;11412;50.802;4.350;2023-03-17T04:24:02;4.57;;;2.22;;
22490;SDS011;11412;50.802;4.350;2023-03-17T04:26:29;3.65;;;1.85;;
22490;SDS011;11412;50.802;4.350;2023-03-17T04:28:56;3.33;;;1.83;;
22490;SDS011;11412;50.802;4.350;2023-03-17T04:31:22;2.47;;;1.65;;
22490;SDS011;11412;50.802;4.350;2023-03-17T04:33:48;4.03;;;1.70;;
22490;SDS011;11412;50.802;4.350;2023-03-17T04:36:17;2.42;;;1.92;;
22490;SDS011;11412;50.802;4.350;2023-03-17T04:38:44;2.42;;;1.73;;
22490;SDS011;11412;50.802;4.350;2023-03-17T04:41:10;3.60;;;1.73;;
22490;SDS011;11412;50.802;4.350;2023-03-17T04:43:36;2.88;;;1.90;;
22490;SDS011;11412;50.802;4.350;2023-03-17T04:46:01;3.15;;;1.55;;
22490;SDS011;11412;50.802;4.350;2023-03-17T04:48:27;2.05;;;1.55;;
22490;SDS011;11412;50.802;4.350;2023-03-17T04:50:53;3.80;;;1.48;;
22490;SDS011;11412;50.802;4.350;2023-03-17T04:53:18;2.45;;;1.40;;
22490;SDS011;11412;50.802;4.350;2023-03-17T04:55:44;4.10;;;1.60;;
22490;SDS011;11412;50.802;4.350;2023-03-17T04:58:10;3.60;;;1.60;;
22490;SDS011;11412;50.802;4.350;2023-03-17T05:00:36;2.00;;;1.30;;
22490;SDS011;11412;50.802;4.350;2023-03-17T05:03:05;4.75;;;1.35;;
22490;SDS011;11412;50.802;4.350;2023-03-17T05:05:32;4.40;;;1.40;;
22490;SDS011;11412;50.802;4.350;2023-03-17T05:07:58;1.70;;;1.58;;
22490;SDS011;11412;50.802;4.350;2023-03-17T05:10:24;3.40;;;1.33;;
22490;SDS011;11412;50.802;4.350;2023-03-17T05:12:49;3.10;;;1.70;;
22490;SDS011;11412;50.802;4.350;2023-03-17T05:15:15;2.88;;;1.50;;
22490;SDS011;11412;50.802;4.350;2023-03-17T05:17:41;2.53;;;1.70;;
22490;SDS011;11412;50.802;4.350;2023-03-17T05:20:07;2.08;;;1.60;;
22490;SDS011;11412;50.802;4.350;2023-03-17T05:22:34;4.93;;;1.50;;
22490;SDS011;11412;50.802;4.350;2023-03-17T05:25:01;4.47;;;1.95;;
22490;SDS011;11412;50.802;4.350;2023-03-17T05:27:28;2.38;;;1.60;;
22490;SDS011;11412;50.802;4.350;2023-03-17T05:29:54;3.20;;;2.20;;
22490;SDS011;11412;50.802;4.350;2023-03-17T05:32:20;5.05;;;2.30;;
22490;SDS011;11412;50.802;4.350;2023-03-17T05:34:46;2.97;;;1.88;;
22490;SDS011;11412;50.802;4.350;2023-03-17T05:37:11;2.42;;;2.00;;
22490;SDS011;11412;50.802;4.350;2023-03-17T05:39:38;4.22;;;2.28;;
22490;SDS011;11412;50.802;4.350;2023-03-17T05:42:04;5.15;;;2.47;;
22490;SDS011;11412;50.802;4.350;2023-03-17T05:44:30;7.55;;;2.60;;
22490;SDS011;11412;50.802;4.350;2023-03-17T05:46:56;7.53;;;3.17;;
22490;SDS011;11412;50.802;4.350;2023-03-17T05:49:23;4.93;;;2.83;;
22490;SDS011;11412;50.802;4.350;2023-03-17T05:51:50;4.53;;;2.50;;
22490;SDS011;11412;50.802;4.350;2023-03-17T05:54:16;5.55;;;2.53;;
22490;SDS011;11412;50.802;4.350;2023-03-17T05:56:41;4.65;;;2.60;;
22490;SDS011;11412;50.802;4.350;2023-03-17T05:59:07;4.15;;;2.53;;
22490;SDS011;11412;50.802;4.350;2023-03-17T06:01:34;4.88;;;2.88;;
22490;SDS011;11412;50.802;4.350;2023-03-17T06:04:00;3.85;;;2.50;;
22490;SDS011;11412;50.802;4.350;2023-03-17T06:06:27;5.55;;;2.40;;
22490;SDS011;11412;50.802;4.350;2023-03-17T06:08:53;7.45;;;2.80;;
22490;SDS011;11412;50.802;4.350;2023-03-17T06:11:18;4.60;;;2.38;;
22490;SDS011;11412;50.802;4.350;2023-03-17T06:13:45;5.60;;;1.98;;
22490;SDS011;11412;50.802;4.350;2023-03-17T06:16:11;3.47;;;2.40;;
22490;SDS011;11412;50.802;4.350;2023-03-17T06:18:37;2.30;;;1.90;;
22490;SDS011;11412;50.802;4.350;2023-03-17T06:21:03;3.30;;;2.08;;
22490;SDS011;11412;50.802;4.350;2023-03-17T06:23:29;4.30;;;2.17;;
22490;SDS011;11412;50.802;4.350;2023-03-17T06:25:55;3.67;;;2.10;;
22490;SDS011;11412;50.802;4.350;2023-03-17T06:28:20;4.43;;;1.80;;
22490;SDS011;11412;50.802;4.350;2023-03-17T06:30:47;3.25;;;2.10;;
22490;SDS011;11412;50.802;4.350;2023-03-17T06:33:13;5.32;;;2.38;;
22490;SDS011;11412;50.802;4.350;2023-03-17T06:35:39;4.63;;;2.88;;
22490;SDS011;11412;50.802;4.350;2023-03-17T06:38:05;5.63;;;2.58;;
22490;SDS011;11412;50.802;4.350;2023-03-17T06:40:30;7.13;;;2.65;;
22490;SDS011;11412;50.802;4.350;2023-03-17T06:42:58;6.93;;;2.60;;
22490;SDS011;11412;50.802;4.350;2023-03-17T06:45:25;4.28;;;2.15;;
22490;SDS011;11412;50.802;4.350;2023-03-17T06:47:51;3.22;;;2.13;;
22490;SDS011;11412;50.802;4.350;2023-03-17T06:50:17;5.15;;;1.90;;
22490;SDS011;11412;50.802;4.350;2023-03-17T06:52:43;3.85;;;1.83;;
22490;SDS011;11412;50.802;4.350;2023-03-17T06:55:08;5.68;;;2.05;;
22490;SDS011;11412;50.802;4.350;2023-03-17T06:57:34;2.53;;;1.90;;
22490;SDS011;11412;50.802;4.350;2023-03-17T07:00:01;2.88;;;1.98;;
22490;SDS011;11412;50.802;4.350;2023-03-17T07:02:30;4.10;;;1.65;;
22490;SDS011;11412;50.802;4.350;2023-03-17T07:04:57;3.25;;;1.95;;
22490;SDS011;11412;50.802;4.350;2023-03-17T07:07:24;4.45;;;1.73;;
22490;SDS011;11412;50.802;4.350;2023-03-17T07:09:51;3.85;;;2.15;;
22490;SDS011;11412;50.802;4.350;2023-03-17T07:12:18;6.55;;;2.20;;
22490;SDS011;11412;50.802;4.350;2023-03-17T07:14:44;4.45;;;2.40;;
22490;SDS011;11412;50.802;4.350;2023-03-17T07:17:10;7.38;;;3.35;;
22490;SDS011;11412;50.802;4.350;2023-03-17T07:19:37;6.38;;;2.60;;
22490;SDS011;11412;50.802;4.350;2023-03-17T07:22:03;7.57;;;2.72;;
22490;SDS011;11412;50.802;4.350;2023-03-17T07:24:29;5.90;;;2.40;;
22490;SDS011;11412;50.802;4.350;2023-03-17T07:26:55;4.70;;;2.60;;
22490;SDS011;11412;50.802;4.350;2023-03-17T07:29:21;7.78;;;3.05;;
22490;SDS011;11412;50.802;4.350;2023-03-17T07:31:47;5.38;;;2.97;;
22490;SDS011;11412;50.802;4.350;2023-03-17T07:34:13;6.68;;;2.75;;
22490;SDS011;11412;50.802;4.350;2023-03-17T07:36:39;7.13;;;2.22;;
22490;SDS011;11412;50.802;4.350;2023-03-17T07:39:05;5.90;;;2.55;;
22490;SDS011;11412;50.802;4.350;2023-03-17T07:41:32;6.05;;;2.47;;
22490;SDS011;11412;50.802;4.350;2023-03-17T07:43:58;6.55;;;2.22;;
22490;SDS011;11412;50.802;4.350;2023-03-17T07:46:23;3.95;;;1.88;;
22490;SDS011;11412;50.802;4.350;2023-03-17T07:48:49;3.47;;;1.92;;
22490;SDS011;11412;50.802;4.350;2023-03-17T07:51:16;3.28;;;1.80;;
22490;SDS011;11412;50.802;4.350;2023-03-17T07:53:45;7.50;;;2.10;;
22490;SDS011;11412;50.802;4.350;2023-03-17T07:56:11;6.05;;;2.58;;
22490;SDS011;11412;50.802;4.350;2023-03-17T07:58:37;4.95;;;2.72;;
22490;SDS011;11412;50.802;4.350;2023-03-17T08:01:02;2.70;;;2.03;;
22490;SDS011;11412;50.802;4.350;2023-03-17T08:03:29;8.40;;;2.78;;
22490;SDS011;11412;50.802;4.350;2023-03-17T08:05:55;11.02;;;2.55;;
22490;SDS011;11412;50.802;4.350;2023-03-17T08:08:22;3.67;;;2.30;;
22490;SDS011;11412;50.802;4.350;2023-03-17T08:10:48;5.45;;;2.28;;
22490;SDS011;11412;50.802;4.350;2023-03-17T08:13:14;7.22;;;2.20;;
22490;SDS011;11412;50.802;4.350;2023-03-17T08:15:40;4.07;;;2.60;;
22490;SDS011;11412;50.802;4.350;2023-03-17T08:18:06;6.78;;;2.15;;
22490;SDS011;11412;50.802;4.350;2023-03-17T08:20:32;6.15;;;2.63;;
22490;SDS011;11412;50.802;4.350;2023-03-17T08:22:59;3.70;;;2.53;;
22490;SDS011;11412;50.802;4.350;2023-03-17T08:25:25;5.00;;;2.90;;
22490;SDS011;11412;50.802;4.350;2023-03-17T08:27:51;5.03;;;3.25;;
22490;SDS011;11412;50.802;4.350;2023-03-17T08:30:18;5.63;;;3.10;;
22490;SDS011;11412;50.802;4.350;2023-03-17T08:32:45;5.35;;;3.47;;
22490;SDS011;11412;50.802;4.350;2023-03-17T08:35:12;5.13;;;2.70;;
22490;SDS011;11412;50.802;4.350;2023-03-17T08:37:42;3.38;;;2.38;;
22490;SDS011;11412;50.802;4.350;2023-03-17T08:40:12;5.32;;;2.40;;
22490;SDS011;11412;50.802;4.350;2023-03-17T08:42:41;6.05;;;2.30;;
22490;SDS011;11412;50.802;4.350;2023-03-17T08:45:08;3.63;;;2.15;;
22490;SDS011;11412;50.802;4.350;2023-03-17T08:47:35;3.60;;;2.30;;
22490;SDS011;11412;50.802;4.350;2023-03-17T08:50:01;4.47;;;1.83;;
22490;SDS011;11412;50.802;4.350;2023-03-17T08:52:29;3.13;;;2.05;;
22490;SDS011;11412;50.802;4.350;2023-03-17T08:54:55;4.18;;;2.65;;
22490;SDS011;11412;50.802;4.350;2023-03-17T08:57:21;3.78;;;2.35;;
22490;SDS011;11412;50.802;4.350;2023-03-17T08:59:47;7.47;;;2.45;;
22490;SDS011;11412;50.802;4.350;2023-03-17T09:02:13;4.72;;;2.20;;
22490;SDS011;11412;50.802;4.350;2023-03-17T09:04:40;3.42;;;2.08;;
22490;SDS011;11412;50.802;4.350;2023-03-17T09:07:06;5.65;;;2.83;;
22490;SDS011;11412;50.802;4.350;2023-03-17T09:09:32;5.43;;;2.50;;
22490;SDS011;11412;50.802;4.350;2023-03-17T09:12:02;8.00;;;2.65;;
22490;SDS011;11412;50.802;4.350;2023-03-17T09:14:29;7.20;;;2.90;;
22490;SDS011;11412;50.802;4.350;2023-03-17T09:16:55;6.35;;;2.70;;
22490;SDS011;11412;50.802;4.350;2023-03-17T09:19:21;6.95;;;3.47;;
22490;SDS011;11412;50.802;4.350;2023-03-17T09:21:48;6.47;;;4.00;;
22490;SDS011;11412;50.802;4.350;2023-03-17T09:24:14;12.23;;;3.25;;
22490;SDS011;11412;50.802;4.350;2023-03-17T09:26:40;7.63;;;3.42;;
22490;SDS011;11412;50.802;4.350;2023-03-17T09:29:05;3.83;;;2.47;;
22490;SDS011;11412;50.802;4.350;2023-03-17T09:31:31;7.40;;;2.72;;
22490;SDS011;11412;50.802;4.350;2023-03-17T09:34:00;3.25;;;2.33;;
22490;SDS011;11412;50.802;4.350;2023-03-17T09:36:26;6.53;;;2.65;;
22490;SDS011;11412;50.802;4.350;2023-03-17T09:38:51;7.15;;;2.35;;
22490;SDS011;11412;50.802;4.350;2023-03-17T09:49:27;8.68;;;2.30;;
22490;SDS011;11412;50.802;4.350;2023-03-17T09:51:59;5.60;;;2.40;;
22490;SDS011;11412;50.802;4.350;2023-03-17T09:54:26;7.47;;;2.60;;
22490;SDS011;11412;50.802;4.350;2023-03-17T09:57:02;5.05;;;2.20;;
22490;SDS011;11412;50.802;4.350;2023-03-17T09:59:34;4.50;;;2.53;;
22490;SDS011;11412;50.802;4.350;2023-03-17T10:02:14;7.72;;;3.15;;
22490;SDS011;11412;50.802;4.350;2023-03-17T10:04:47;4.75;;;2.40;;
22490;SDS011;11412;50.802;4.350;2023-03-17T10:07:14;5.00;;;2.75;;
22490;SDS011;11412;50.802;4.350;2023-03-17T10:09:46;7.75;;;2.80;;
22490;SDS011;11412;50.802;4.350;2023-03-17T10:15:33;9.25;;;3.10;;
22490;SDS011;11412;50.802;4.350;2023-03-17T10:18:15;5.20;;;2.67;;
22490;SDS011;11412;50.802;4.350;2023-03-17T10:23:42;3.47;;;2.85;;
22490;SDS011;11412;50.802;4.350;2023-03-17T10:26:27;7.28;;;2.92;;
22490;SDS011;11412;50.802;4.350;2023-03-17T10:28:57;6.38;;;2.60;;
22490;SDS011;11412;50.802;4.350;2023-03-17T10:31:29;3.63;;;2.45;;
22490;SDS011;11412;50.802;4.350;2023-03-17T10:36:49;4.22;;;2.00;;
22490;SDS011;11412;50.802;4.350;2023-03-17T10:39:20;3.85;;;2.30;;
22490;SDS011;11412;50.802;4.350;2023-03-17T10:41:55;4.22;;;2.40;;
22490;SDS011;11412;50.802;4.350;2023-03-17T10:44:39;4.75;;;1.90;;
22490;SDS011;11412;50.802;4.350;2023-03-17T10:47:34;2.97;;;1.98;;
22490;SDS011;11412;50.802;4.350;2023-03-17T10:50:17;5.45;;;2.50;;
22490;SDS011;11412;50.802;4.350;2023-03-17T10:52:43;4.10;;;2.22;;
22490;SDS011;11412;50.802;4.350;2023-03-17T10:55:13;5.47;;;2.15;;
22490;SDS011;11412;50.802;4.350;2023-03-17T10:57:47;4.82;;;2.05;;
22490;SDS011;11412;50.802;4.350;2023-03-17T11:00:20;5.10;;;2.20;;
22490;SDS011;11412;50.802;4.350;2023-03-17T11:02:56;5.80;;;1.90;;
22490;SDS011;11412;50.802;4.350;2023-03-17T11:05:25;10.85;;;2.47;;
22490;SDS011;11412;50.802;4.350;2023-03-17T11:08:37;2.90;;;2.00;;
22490;SDS011;11412;50.802;4.350;2023-03-17T11:10:43;6.78;;;1.77;;
22490;SDS011;11412;50.802;4.350;2023-03-17T11:13:14;3.45;;;2.05;;
22490;SDS011;11412;50.802;4.350;2023-03-17T11:15:42;2.22;;;1.83;;
22490;SDS011;11412;50.802;4.350;2023-03-17T11:18:21;4.93;;;1.60;;
22490;SDS011;11412;50.802;4.350;2023-03-17T11:20:57;2.95;;;1.83;;
22490;SDS011;11412;50.802;4.350;2023-03-17T11:29:20;3.00;;;1.80;;
22490;SDS011;11412;50.802;4.350;2023-03-17T11:42:22;2.25;;;1.80;;
22490;SDS011;11412;50.802;4.350;2023-03-17T11:50:38;3.40;;;2.10;;
22490;SDS011;11412;50.802;4.350;2023-03-17T11:56:19;4.13;;;2.08;;
22490;SDS011;11412;50.802;4.350;2023-03-17T11:58:53;5.90;;;2.08;;
22490;SDS011;11412;50.802;4.350;2023-03-17T12:01:27;3.25;;;2.08;;
22490;SDS011;11412;50.802;4.350;2023-03-17T12:04:16;4.22;;;2.10;;
22490;SDS011;11412;50.802;4.350;2023-03-17T12:06:53;4.20;;;2.13;;
22490;SDS011;11412;50.802;4.350;2023-03-17T12:09:44;1.75;;;1.63;;
22490;SDS011;11412;50.802;4.350;2023-03-17T12:12:21;2.83;;;1.73;;
22490;SDS011;11412;50.802;4.350;2023-03-17T12:14:52;4.15;;;1.75;;
22490;SDS011;11412;50.802;4.350;2023-03-17T12:17:28;5.28;;;2.10;;
22490;SDS011;11412;50.802;4.350;2023-03-17T12:22:43;5.28;;;1.92;;
22490;SDS011;11412;50.802;4.350;2023-03-17T12:25:18;5.00;;;1.83;;
22490;SDS011;11412;50.802;4.350;2023-03-17T12:31:18;3.78;;;1.60;;
22490;SDS011;11412;50.802;4.350;2023-03-17T12:34:03;5.95;;;1.77;;
22490;SDS011;11412;50.802;4.350;2023-03-17T12:36:34;2.05;;;1.70;;
22490;SDS011;11412;50.802;4.350;2023-03-17T12:39:22;1.65;;;1.55;;
22490;SDS011;11412;50.802;4.350;2023-03-17T12:42:12;3.05;;;2.30;;
22490;SDS011;11412;50.802;4.350;2023-03-17T12:53:51;3.55;;;1.92;;
22490;SDS011;11412;50.802;4.350;2023-03-17T12:56:18;2.85;;;1.83;;
22490;SDS011;11412;50.802;4.350;2023-03-17T12:58:50;6.60;;;2.03;;
22490;SDS011;11412;50.802;4.350;2023-03-17T13:06:21;3.20;;;1.42;;
22490;SDS011;11412;50.802;4.350;2023-03-17T13:08:49;4.72;;;1.75;;
22490;SDS011;11412;50.802;4.350;2023-03-17T13:21:51;2.10;;;1.60;;
22490;SDS011;11412;50.802;4.350;2023-03-17T13:24:44;2.47;;;1.50;;
22490;SDS011;11412;50.802;4.350;2023-03-17T13:27:13;2.45;;;1.70;;
22490;SDS011;11412;50.802;4.350;2023-03-17T13:33:00;5.25;;;1.52;;
22490;SDS011;11412;50.802;4.350;2023-03-17T13:38:55;5.05;;;1.83;;
22490;SDS011;11412;50.802;4.350;2023-03-17T13:49:48;5.57;;;1.80;;
22490;SDS011;11412;50.802;4.350;2023-03-17T13:52:25;3.03;;;1.63;;
22490;SDS011;11412;50.802;4.350;2023-03-17T13:57:40;2.05;;;1.73;;
22490;SDS011;11412;50.802;4.350;2023-03-17T14:02:45;4.43;;;1.63;;
22490;SDS011;11412;50.802;4.350;2023-03-17T14:05:18;3.42;;;1.85;;
22490;SDS011;11412;50.802;4.350;2023-03-17T14:08:03;5.25;;;2.00;;
22490;SDS011;11412;50.802;4.350;2023-03-17T14:10:39;3.92;;;1.70;;
22490;SDS011;11412;50.802;4.350;2023-03-17T14:16:01;2.95;;;1.77;;
22490;SDS011;11412;50.802;4.350;2023-03-17T14:18:37;3.08;;;1.67;;
22490;SDS011;11412;50.802;4.350;2023-03-17T14:21:05;2.45;;;1.40;;
22490;SDS011;11412;50.802;4.350;2023-03-17T14:23:51;6.68;;;1.70;;
22490;SDS011;11412;50.802;4.350;2023-03-17T14:28:43;4.47;;;1.98;;
22490;SDS011;11412;50.802;4.350;2023-03-17T14:31:15;3.85;;;1.67;;
22490;SDS011;11412;50.802;4.350;2023-03-17T14:33:58;1.60;;;1.50;;
22490;SDS011;11412;50.802;4.350;2023-03-17T14:36:25;2.10;;;1.67;;
22490;SDS011;11412;50.802;4.350;2023-03-17T14:38:53;3.22;;;1.70;;
22490;SDS011;11412;50.802;4.350;2023-03-17T14:41:23;3.65;;;1.90;;
22490;SDS011;11412;50.802;4.350;2023-03-17T14:43:50;1.27;;;1.17;;
22490;SDS011;11412;50.802;4.350;2023-03-17T14:46:25;7.03;;;2.08;;
22490;SDS011;11412;50.802;4.350;2023-03-17T14:49:00;1.52;;;1.42;;
22490;SDS011;11412;50.802;4.350;2023-03-17T14:51:29;3.75;;;1.50;;
22490;SDS011;11412;50.802;4.350;2023-03-17T14:54:01;4.30;;;1.63;;
22490;SDS011;11412;50.802;4.350;2023-03-17T14:56:50;4.57;;;1.60;;
22490;SDS011;11412;50.802;4.350;2023-03-17T15:05:25;3.60;;;1.42;;
22490;SDS011;11412;50.802;4.350;2023-03-17T15:10:56;3.33;;;1.55;;
22490;SDS011;11412;50.802;4.350;2023-03-17T15:13:26;4.22;;;1.52;;
22490;SDS011;11412;50.802;4.350;2023-03-17T15:15:53;8.32;;;1.63;;
22490;SDS011;11412;50.802;4.350;2023-03-17T15:18:20;4.50;;;1.70;;
22490;SDS011;11412;50.802;4.350;2023-03-17T15:20:48;5.20;;;2.22;;
22490;SDS011;11412;50.802;4.350;2023-03-17T15:25:46;3.42;;;1.40;;
22490;SDS011;11412;50.802;4.350;2023-03-17T15:28:16;2.55;;;1.20;;
22490;SDS011;11412;50.802;4.350;2023-03-17T15:30:46;2.42;;;1.38;;
22490;SDS011;11412;50.802;4.350;2023-03-17T15:33:20;3.75;;;1.85;;
22490;SDS011;11412;50.802;4.350;2023-03-17T15:35:53;1.92;;;1.33;;
22490;SDS011;11412;50.802;4.350;2023-03-17T15:38:20;2.80;;;1.27;;
22490;SDS011;11412;50.802;4.350;2023-03-17T15:40:47;3.53;;;1.30;;
22490;SDS011;11412;50.802;4.350;2023-03-17T15:43:14;5.40;;;1.30;;
22490;SDS011;11412;50.802;4.350;2023-03-17T15:45:40;4.72;;;1.55;;
22490;SDS011;11412;50.802;4.350;2023-03-17T15:48:24;2.95;;;1.70;;
22490;SDS011;11412;50.802;4.350;2023-03-17T15:50:53;3.47;;;1.70;;
22490;SDS011;11412;50.802;4.350;2023-03-17T15:53:20;2.45;;;1.45;;
22490;SDS011;11412;50.802;4.350;2023-03-17T15:55:47;4.45;;;2.00;;
22490;SDS011;11412;50.802;4.350;2023-03-17T15:58:13;4.80;;;1.67;;
22490;SDS011;11412;50.802;4.350;2023-03-17T16:00:39;7.95;;;1.80;;
22490;SDS011;11412;50.802;4.350;2023-03-17T16:03:19;3.20;;;1.77;;
22490;SDS011;11412;50.802;4.350;2023-03-17T16:05:57;4.10;;;1.50;;
22490;SDS011;11412;50.802;4.350;2023-03-17T16:08:23;2.17;;;1.70;;
22490;SDS011;11412;50.802;4.350;2023-03-17T16:10:49;4.55;;;1.90;;
22490;SDS011;11412;50.802;4.350;2023-03-17T16:13:16;3.95;;;1.90;;
22490;SDS011;11412;50.802;4.350;2023-03-17T16:15:42;4.78;;;1.80;;
22490;SDS011;11412;50.802;4.350;2023-03-17T16:18:15;2.95;;;2.10;;
22490;SDS011;11412;50.802;4.350;2023-03-17T16:20:43;4.20;;;2.10;;
22490;SDS011;11412;50.802;4.350;2023-03-17T16:23:15;3.30;;;2.03;;
22490;SDS011;11412;50.802;4.350;2023-03-17T16:25:46;4.07;;;2.10;;
22490;SDS011;11412;50.802;4.350;2023-03-17T16:28:21;8.75;;;2.47;;
22490;SDS011;11412;50.802;4.350;2023-03-17T16:30:51;5.55;;;2.15;;
22490;SDS011;11412;50.802;4.350;2023-03-17T16:35:44;6.15;;;2.63;;
22490;SDS011;11412;50.802;4.350;2023-03-17T16:38:15;6.00;;;2.65;;
22490;SDS011;11412;50.802;4.350;2023-03-17T16:40:43;6.80;;;2.70;;
22490;SDS011;11412;50.802;4.350;2023-03-17T16:43:16;4.55;;;2.72;;
22490;SDS011;11412;50.802;4.350;2023-03-17T16:45:44;6.45;;;3.00;;
22490;SDS011;11412;50.802;4.350;2023-03-17T16:48:11;3.78;;;2.40;;
22490;SDS011;11412;50.802;4.350;2023-03-17T16:50:38;3.83;;;2.35;;
22490;SDS011;11412;50.802;4.350;2023-03-17T16:53:05;3.78;;;2.40;;
22490;SDS011;11412;50.802;4.350;2023-03-17T16:55:30;4.28;;;2.40;;
22490;SDS011;11412;50.802;4.350;2023-03-17T16:57:58;4.25;;;2.33;;